sensor_id;sensor_type;location;lat;lon;timestamp;pressure;altitude;pressure_sealevel;temperature;humidity
4705;BME280;2366;51.332;6.610;2023-05-01T00:01:49;101571.88;;;15.03;51.01
4705;BME280;2366;51.332;6.610;2023-05-01T00:04:16;101571.34;;;14.97;51.31
4705;BME280;2366;51.332;6.610;2023-05-01T00:06:41;101576.31;;;14.89;51.72
4705;BME280;2366;51.332;6.610;2023-05-01T00:09:06;101570.75;;;14.79;51.97
4705;BME280;2366;51.332;6.610;2023-05-01T00:11:34;101561.41;;;14.72;52.32
4705;BME280;2366;51.332;6.610;2023-05-01T00:14:01;101560.09;;;14.65;52.51
4705;BME280;2366;51.332;6.610;2023-05-01T00:16:27;101559.56;;;14.60;52.73
4705;BME280;2366;51.332;6.610;2023-05-01T00:18:52;101560.31;;;14.48;53.49
4705;BME280;2366;51.332;6.610;2023-05-01T00:21:19;101556.25;;;14.42;53.96
4705;BME280;2366;51.332;6.610;2023-05-01T00:23:44;101550.53;;;14.34;54.10
4705;BME280;2366;51.332;6.610;2023-05-01T00:26:10;101548.34;;;14.26;54.61
4705;BME280;2366;51.332;6.610;2023-05-01T00:28:35;101546.06;;;14.20;54.96
4705;BME280;2366;51.332;6.610;2023-05-01T00:31:01;101542.06;;;14.13;55.59
4705;BME280;2366;51.332;6.610;2023-05-01T00:33:26;101548.56;;;14.09;55.77
4705;BME280;2366;51.332;6.610;2023-05-01T00:35:52;101544.19;;;14.08;56.07
4705;BME280;2366;51.332;6.610;2023-05-01T00:38:17;101544.56;;;14.02;56.09
4705;BME280;2366;51.332;6.610;2023-05-01T00:40:44;101549.31;;;13.96;56.24
4705;BME280;2366;51.332;6.610;2023-05-01T00:43:10;101537.25;;;13.91;56.53
4705;BME280;2366;51.332;6.610;2023-05-01T00:45:36;101528.56;;;13.87;56.85
4705;BME280;2366;51.332;6.610;2023-05-01T00:48:02;101529.63;;;13.85;56.98
4705;BME280;2366;51.332;6.610;2023-05-01T00:50:29;101527.25;;;13.80;57.21
4705;BME280;2366;51.332;6.610;2023-05-01T00:52:54;101520.94;;;13.81;57.27
4705;BME280;2366;51.332;6.610;2023-05-01T00:55:20;101515.44;;;13.84;57.61
4705;BME280;2366;51.332;6.610;2023-05-01T00:57:46;101517.91;;;13.87;57.39
4705;BME280;2366;51.332;6.610;2023-05-01T01:00:12;101510.03;;;13.86;57.61
4705;BME280;2366;51.332;6.610;2023-05-01T01:02:38;101506.66;;;13.96;57.06
4705;BME280;2366;51.332;6.610;2023-05-01T01:05:04;101504.19;;;14.08;56.50
4705;BME280;2366;51.332;6.610;2023-05-01T01:07:50;101501.03;;;14.15;55.85
4705;BME280;2366;51.332;6.610;2023-05-01T01:13:13;101486.06;;;14.27;55.08
4705;BME280;2366;51.332;6.610;2023-05-01T01:18:36;101486.44;;;14.21;55.33
4705;BME280;2366;51.332;6.610;2023-05-01T01:21:28;101484.19;;;14.15;55.50
4705;BME280;2366;51.332;6.610;2023-05-01T01:35:18;101489.44;;;14.02;56.86
4705;BME280;2366;51.332;6.610;2023-05-01T01:37:51;101473.91;;;14.09;56.90
4705;BME280;2366;51.332;6.610;2023-05-01T01:40:21;101472.53;;;14.16;56.59
4705;BME280;2366;51.332;6.610;2023-05-01T01:42:54;101472.16;;;14.22;56.48
4705;BME280;2366;51.332;6.610;2023-05-01T01:45:24;101465.47;;;14.29;56.38
4705;BME280;2366;51.332;6.610;2023-05-01T01:47:54;101470.38;;;14.35;56.24
4705;BME280;2366;51.332;6.610;2023-05-01T01:50:23;101459.44;;;14.40;55.77
4705;BME280;2366;51.332;6.610;2023-05-01T01:52:51;101460.00;;;14.45;55.73
4705;BME280;2366;51.332;6.610;2023-05-01T01:55:21;101459.78;;;14.48;55.67
4705;BME280;2366;51.332;6.610;2023-05-01T01:57:49;101464.94;;;14.51;55.33
4705;BME280;2366;51.332;6.610;2023-05-01T02:00:16;101437.56;;;14.48;55.60
4705;BME280;2366;51.332;6.610;2023-05-01T02:02:43;101445.28;;;14.52;55.43
4705;BME280;2366;51.332;6.610;2023-05-01T02:05:14;101435.56;;;14.51;55.45
4705;BME280;2366;51.332;6.610;2023-05-01T02:07:40;101441.75;;;14.52;55.39
4705;BME280;2366;51.332;6.610;2023-05-01T02:10:11;101433.84;;;14.50;55.14
4705;BME280;2366;51.332;6.610;2023-05-01T02:12:38;101433.09;;;14.48;55.41
4705;BME280;2366;51.332;6.610;2023-05-01T02:15:05;101430.56;;;14.47;55.58
4705;BME280;2366;51.332;6.610;2023-05-01T02:17:34;101424.47;;;14.45;55.78
4705;BME280;2366;51.332;6.610;2023-05-01T02:20:00;101422.19;;;14.38;55.94
4705;BME280;2366;51.332;6.610;2023-05-01T02:22:29;101429.66;;;14.33;56.53
4705;BME280;2366;51.332;6.610;2023-05-01T02:24:56;101421.84;;;14.30;56.96
4705;BME280;2366;51.332;6.610;2023-05-01T02:27:23;101409.56;;;14.28;57.11
4705;BME280;2366;51.332;6.610;2023-05-01T02:29:51;101403.56;;;14.24;57.11
4705;BME280;2366;51.332;6.610;2023-05-01T02:32:17;101409.88;;;14.23;56.91
4705;BME280;2366;51.332;6.610;2023-05-01T02:34:44;101399.38;;;14.20;57.43
4705;BME280;2366;51.332;6.610;2023-05-01T02:37:10;101403.31;;;14.14;57.52
4705;BME280;2366;51.332;6.610;2023-05-01T02:39:36;101400.22;;;14.08;58.14
4705;BME280;2366;51.332;6.610;2023-05-01T02:42:02;101394.13;;;14.06;58.31
4705;BME280;2366;51.332;6.610;2023-05-01T02:44:47;101393.84;;;13.96;58.58
4705;BME280;2366;51.332;6.610;2023-05-01T02:47:17;101397.78;;;13.90;58.87
4705;BME280;2366;51.332;6.610;2023-05-01T02:49:44;101389.13;;;13.87;59.05
4705;BME280;2366;51.332;6.610;2023-05-01T02:52:13;101378.75;;;13.82;59.06
4705;BME280;2366;51.332;6.610;2023-05-01T02:54:40;101385.25;;;13.78;58.89
4705;BME280;2366;51.332;6.610;2023-05-01T02:57:08;101381.81;;;13.76;59.09
4705;BME280;2366;51.332;6.610;2023-05-01T02:59:34;101378.38;;;13.74;59.24
4705;BME280;2366;51.332;6.610;2023-05-01T03:02:00;101374.13;;;13.71;59.41
4705;BME280;2366;51.332;6.610;2023-05-01T03:04:26;101369.19;;;13.65;60.02
4705;BME280;2366;51.332;6.610;2023-05-01T03:06:52;101371.09;;;13.63;60.12
4705;BME280;2366;51.332;6.610;2023-05-01T03:09:18;101368.72;;;13.59;60.54
4705;BME280;2366;51.332;6.610;2023-05-01T03:11:43;101368.81;;;13.57;60.62
4705;BME280;2366;51.332;6.610;2023-05-01T03:14:09;101362.84;;;13.53;60.64
4705;BME280;2366;51.332;6.610;2023-05-01T03:16:35;101351.50;;;13.50;60.74
4705;BME280;2366;51.332;6.610;2023-05-01T03:19:00;101355.41;;;13.44;60.76
4705;BME280;2366;51.332;6.610;2023-05-01T03:21:26;101355.63;;;13.41;60.61
4705;BME280;2366;51.332;6.610;2023-05-01T03:23:51;101354.84;;;13.39;60.99
4705;BME280;2366;51.332;6.610;2023-05-01T03:26:16;101350.66;;;13.35;60.65
4705;BME280;2366;51.332;6.610;2023-05-01T03:28:42;101347.44;;;13.30;60.94
4705;BME280;2366;51.332;6.610;2023-05-01T03:31:07;101344.16;;;13.25;60.95
4705;BME280;2366;51.332;6.610;2023-05-01T03:33:32;101340.75;;;13.23;61.15
4705;BME280;2366;51.332;6.610;2023-05-01T03:36:00;101332.03;;;13.21;61.32
4705;BME280;2366;51.332;6.610;2023-05-01T03:38:26;101335.72;;;13.18;61.10
4705;BME280;2366;51.332;6.610;2023-05-01T03:40:52;101336.75;;;13.15;61.10
4705;BME280;2366;51.332;6.610;2023-05-01T03:43:17;101339.78;;;13.09;61.63
4705;BME280;2366;51.332;6.610;2023-05-01T03:45:42;101332.09;;;13.05;62.02
4705;BME280;2366;51.332;6.610;2023-05-01T03:48:08;101330.56;;;13.01;62.18
4705;BME280;2366;51.332;6.610;2023-05-01T03:50:33;101337.16;;;12.95;62.33
4705;BME280;2366;51.332;6.610;2023-05-01T03:52:58;101325.63;;;12.94;62.36
4705;BME280;2366;51.332;6.610;2023-05-01T03:55:24;101330.09;;;12.94;62.21
4705;BME280;2366;51.332;6.610;2023-05-01T03:57:49;101332.00;;;12.92;62.25
4705;BME280;2366;51.332;6.610;2023-05-01T04:00:16;101325.16;;;12.88;62.34
4705;BME280;2366;51.332;6.610;2023-05-01T04:02:42;101322.69;;;12.85;62.37
4705;BME280;2366;51.332;6.610;2023-05-01T04:05:07;101321.94;;;12.83;62.24
4705;BME280;2366;51.332;6.610;2023-05-01T04:07:33;101321.94;;;12.83;62.49
4705;BME280;2366;51.332;6.610;2023-05-01T04:09:58;101320.22;;;12.82;62.28
4705;BME280;2366;51.332;6.610;2023-05-01T04:12:24;101320.13;;;12.83;62.53
4705;BME280;2366;51.332;6.610;2023-05-01T04:14:49;101317.56;;;12.82;62.74
4705;BME280;2366;51.332;6.610;2023-05-01T04:17:15;101318.50;;;12.81;62.56
4705;BME280;2366;51.332;6.610;2023-05-01T04:19:40;101314.91;;;12.82;62.77
4705;BME280;2366;51.332;6.610;2023-05-01T04:22:06;101318.13;;;12.87;62.56
4705;BME280;2366;51.332;6.610;2023-05-01T04:24:31;101317.94;;;12.90;62.91
4705;BME280;2366;51.332;6.610;2023-05-01T04:26:56;101310.53;;;12.95;62.79
4705;BME280;2366;51.332;6.610;2023-05-01T04:29:22;101306.53;;;13.02;62.57
4705;BME280;2366;51.332;6.610;2023-05-01T04:31:48;101312.34;;;13.09;62.25
4705;BME280;2366;51.332;6.610;2023-05-01T04:34:13;101315.38;;;13.17;62.54
4705;BME280;2366;51.332;6.610;2023-05-01T04:36:39;101308.63;;;13.26;61.89
4705;BME280;2366;51.332;6.610;2023-05-01T04:39:04;101309.97;;;13.33;62.12
4705;BME280;2366;51.332;6.610;2023-05-01T04:41:30;101306.91;;;13.39;61.85
4705;BME280;2366;51.332;6.610;2023-05-01T04:43:55;101308.53;;;13.42;61.78
4705;BME280;2366;51.332;6.610;2023-05-01T04:46:21;101315.44;;;13.44;61.63
4705;BME280;2366;51.332;6.610;2023-05-01T04:48:46;101319.47;;;13.51;62.27
4705;BME280;2366;51.332;6.610;2023-05-01T04:51:11;101312.56;;;13.62;61.87
4705;BME280;2366;51.332;6.610;2023-05-01T04:53:37;101315.50;;;13.71;61.62
4705;BME280;2366;51.332;6.610;2023-05-01T04:56:02;101310.22;;;13.84;61.70
4705;BME280;2366;51.332;6.610;2023-05-01T04:58:28;101320.06;;;13.96;61.22
4705;BME280;2366;51.332;6.610;2023-05-01T05:00:53;101312.22;;;14.08;61.27
4705;BME280;2366;51.332;6.610;2023-05-01T05:03:19;101311.19;;;14.23;60.78
4705;BME280;2366;51.332;6.610;2023-05-01T05:05:44;101317.00;;;14.43;60.49
4705;BME280;2366;51.332;6.610;2023-05-01T05:08:10;101311.59;;;14.57;59.98
4705;BME280;2366;51.332;6.610;2023-05-01T05:10:36;101317.59;;;14.73;59.68
4705;BME280;2366;51.332;6.610;2023-05-01T05:13:01;101318.97;;;14.92;59.42
4705;BME280;2366;51.332;6.610;2023-05-01T05:15:26;101324.84;;;15.10;58.91
4705;BME280;2366;51.332;6.610;2023-05-01T05:17:52;101323.19;;;15.33;58.91
4705;BME280;2366;51.332;6.610;2023-05-01T05:20:17;101321.19;;;15.60;57.91
4705;BME280;2366;51.332;6.610;2023-05-01T05:22:42;101324.16;;;15.81;57.38
4705;BME280;2366;51.332;6.610;2023-05-01T05:25:08;101319.88;;;16.03;56.85
4705;BME280;2366;51.332;6.610;2023-05-01T05:27:33;101314.78;;;16.35;56.21
4705;BME280;2366;51.332;6.610;2023-05-01T05:30:06;101323.66;;;16.82;54.68
4705;BME280;2366;51.332;6.610;2023-05-01T05:32:31;101314.56;;;17.08;53.28
4705;BME280;2366;51.332;6.610;2023-05-01T05:34:57;101315.63;;;17.28;51.04
4705;BME280;2366;51.332;6.610;2023-05-01T05:37:23;101320.09;;;17.50;49.79
4705;BME280;2366;51.332;6.610;2023-05-01T05:39:53;101308.19;;;17.97;48.54
4705;BME280;2366;51.332;6.610;2023-05-01T05:42:18;101313.09;;;18.45;46.80
4705;BME280;2366;51.332;6.610;2023-05-01T05:44:43;101313.88;;;18.57;46.00
4705;BME280;2366;51.332;6.610;2023-05-01T05:47:10;101315.59;;;18.79;46.33
4705;BME280;2366;51.332;6.610;2023-05-01T05:49:35;101315.88;;;19.47;44.46
4705;BME280;2366;51.332;6.610;2023-05-01T05:52:00;101318.53;;;20.07;43.27
4705;BME280;2366;51.332;6.610;2023-05-01T05:54:26;101325.34;;;20.41;42.18
4705;BME280;2366;51.332;6.610;2023-05-01T05:56:51;101319.94;;;20.31;42.57
4705;BME280;2366;51.332;6.610;2023-05-01T05:59:17;101323.44;;;20.80;41.62
4705;BME280;2366;51.332;6.610;2023-05-01T06:01:42;101318.25;;;20.97;40.80
4705;BME280;2366;51.332;6.610;2023-05-01T06:04:08;101315.94;;;20.64;40.65
4705;BME280;2366;51.332;6.610;2023-05-01T06:06:33;101314.56;;;20.31;41.11
4705;BME280;2366;51.332;6.610;2023-05-01T06:08:59;101318.81;;;20.04;42.02
4705;BME280;2366;51.332;6.610;2023-05-01T06:11:25;101317.81;;;19.76;41.67
4705;BME280;2366;51.332;6.610;2023-05-01T06:13:51;101322.28;;;19.66;42.61
4705;BME280;2366;51.332;6.610;2023-05-01T06:16:16;101320.44;;;19.66;42.80
4705;BME280;2366;51.332;6.610;2023-05-01T06:18:41;101323.84;;;19.68;43.12
4705;BME280;2366;51.332;6.610;2023-05-01T06:21:07;101321.06;;;19.80;42.45
4705;BME280;2366;51.332;6.610;2023-05-01T06:23:32;101315.97;;;20.06;42.40
4705;BME280;2366;51.332;6.610;2023-05-01T06:25:58;101319.66;;;20.05;41.95
4705;BME280;2366;51.332;6.610;2023-05-01T06:28:23;101319.66;;;19.85;42.09
4705;BME280;2366;51.332;6.610;2023-05-01T06:30:49;101316.19;;;19.64;41.57
4705;BME280;2366;51.332;6.610;2023-05-01T06:33:15;101315.75;;;19.59;41.51
4705;BME280;2366;51.332;6.610;2023-05-01T06:35:40;101306.22;;;19.45;41.76
4705;BME280;2366;51.332;6.610;2023-05-01T06:38:05;101311.53;;;19.66;41.25
4705;BME280;2366;51.332;6.610;2023-05-01T06:40:31;101309.88;;;19.75;41.38
4705;BME280;2366;51.332;6.610;2023-05-01T06:42:59;101313.84;;;19.80;40.74
4705;BME280;2366;51.332;6.610;2023-05-01T06:45:25;101308.47;;;19.90;41.04
4705;BME280;2366;51.332;6.610;2023-05-01T06:47:50;101316.28;;;20.32;40.92
4705;BME280;2366;51.332;6.610;2023-05-01T06:50:16;101314.53;;;20.50;40.08
4705;BME280;2366;51.332;6.610;2023-05-01T06:52:41;101309.72;;;20.64;40.79
4705;BME280;2366;51.332;6.610;2023-05-01T06:55:07;101310.50;;;20.84;39.85
4705;BME280;2366;51.332;6.610;2023-05-01T06:57:32;101304.44;;;21.19;38.10
4705;BME280;2366;51.332;6.610;2023-05-01T06:59:57;101316.81;;;21.40;37.93
4705;BME280;2366;51.332;6.610;2023-05-01T07:02:23;101302.78;;;21.08;37.57
4705;BME280;2366;51.332;6.610;2023-05-01T07:04:48;101305.50;;;20.99;37.85
4705;BME280;2366;51.332;6.610;2023-05-01T07:07:14;101305.16;;;20.74;38.60
4705;BME280;2366;51.332;6.610;2023-05-01T07:09:39;101307.31;;;20.61;38.84
4705;BME280;2366;51.332;6.610;2023-05-01T07:12:05;101305.47;;;20.51;39.45
4705;BME280;2366;51.332;6.610;2023-05-01T07:14:31;101298.41;;;20.41;39.90
4705;BME280;2366;51.332;6.610;2023-05-01T07:16:56;101311.00;;;20.60;39.30
4705;BME280;2366;51.332;6.610;2023-05-01T07:19:22;101307.03;;;20.64;39.76
4705;BME280;2366;51.332;6.610;2023-05-01T07:21:47;101305.47;;;20.61;38.86
4705;BME280;2366;51.332;6.610;2023-05-01T07:24:13;101300.41;;;20.39;39.65
4705;BME280;2366;51.332;6.610;2023-05-01T07:26:38;101299.97;;;20.63;39.67
4705;BME280;2366;51.332;6.610;2023-05-01T07:29:04;101302.16;;;20.87;39.77
4705;BME280;2366;51.332;6.610;2023-05-01T07:31:29;101305.84;;;21.23;39.28
4705;BME280;2366;51.332;6.610;2023-05-01T07:33:55;101307.28;;;21.73;38.26
4705;BME280;2366;51.332;6.610;2023-05-01T07:36:21;101307.66;;;21.60;38.86
4705;BME280;2366;51.332;6.610;2023-05-01T07:38:47;101305.31;;;21.38;38.12
4705;BME280;2366;51.332;6.610;2023-05-01T07:41:12;101307.78;;;21.59;39.41
4705;BME280;2366;51.332;6.610;2023-05-01T07:43:38;101304.97;;;21.96;37.95
4705;BME280;2366;51.332;6.610;2023-05-01T07:46:03;101299.69;;;22.48;36.58
4705;BME280;2366;51.332;6.610;2023-05-01T07:48:30;101304.53;;;22.63;36.10
4705;BME280;2366;51.332;6.610;2023-05-01T07:50:56;101293.09;;;22.51;36.36
4705;BME280;2366;51.332;6.610;2023-05-01T07:53:22;101298.75;;;22.58;36.68
4705;BME280;2366;51.332;6.610;2023-05-01T07:55:48;101300.38;;;22.76;36.34
4705;BME280;2366;51.332;6.610;2023-05-01T07:58:14;101293.53;;;22.90;35.39
4705;BME280;2366;51.332;6.610;2023-05-01T08:00:39;101297.53;;;22.78;36.88
4705;BME280;2366;51.332;6.610;2023-05-01T08:03:05;101297.63;;;22.94;36.75
4705;BME280;2366;51.332;6.610;2023-05-01T08:05:30;101302.56;;;23.42;35.86
4705;BME280;2366;51.332;6.610;2023-05-01T08:07:56;101295.44;;;23.32;34.83
4705;BME280;2366;51.332;6.610;2023-05-01T08:10:22;101287.97;;;23.26;34.97
4705;BME280;2366;51.332;6.610;2023-05-01T08:12:47;101304.28;;;24.10;34.68
4705;BME280;2366;51.332;6.610;2023-05-01T08:15:12;101305.72;;;25.42;33.09
4705;BME280;2366;51.332;6.610;2023-05-01T08:17:38;101302.66;;;26.60;31.05
4705;BME280;2366;51.332;6.610;2023-05-01T08:20:03;101301.94;;;26.67;31.40
4705;BME280;2366;51.332;6.610;2023-05-01T08:22:29;101294.69;;;26.74;30.05
4705;BME280;2366;51.332;6.610;2023-05-01T08:24:56;101291.06;;;26.29;31.57
4705;BME280;2366;51.332;6.610;2023-05-01T08:27:21;101293.34;;;26.40;30.78
4705;BME280;2366;51.332;6.610;2023-05-01T08:29:47;101290.94;;;26.60;29.90
4705;BME280;2366;51.332;6.610;2023-05-01T08:32:13;101293.78;;;26.43;30.46
4705;BME280;2366;51.332;6.610;2023-05-01T08:34:39;101286.38;;;26.75;30.00
4705;BME280;2366;51.332;6.610;2023-05-01T08:37:04;101289.00;;;26.98;30.26
4705;BME280;2366;51.332;6.610;2023-05-01T08:39:30;101286.38;;;27.05;28.83
4705;BME280;2366;51.332;6.610;2023-05-01T08:41:55;101282.16;;;26.35;30.77
4705;BME280;2366;51.332;6.610;2023-05-01T08:44:26;101290.97;;;25.99;31.81
4705;BME280;2366;51.332;6.610;2023-05-01T08:47:01;101290.56;;;25.79;31.64
4705;BME280;2366;51.332;6.610;2023-05-01T08:49:32;101288.72;;;26.63;30.74
4705;BME280;2366;51.332;6.610;2023-05-01T08:52:00;101288.91;;;26.01;31.51
4705;BME280;2366;51.332;6.610;2023-05-01T08:54:26;101286.13;;;26.09;31.86
4705;BME280;2366;51.332;6.610;2023-05-01T08:56:52;101286.44;;;25.60;32.81
4705;BME280;2366;51.332;6.610;2023-05-01T08:59:18;101285.53;;;25.45;32.92
4705;BME280;2366;51.332;6.610;2023-05-01T09:01:45;101284.41;;;25.62;32.74
4705;BME280;2366;51.332;6.610;2023-05-01T09:04:13;101282.41;;;25.56;33.21
4705;BME280;2366;51.332;6.610;2023-05-01T09:06:39;101278.94;;;25.39;33.13
4705;BME280;2366;51.332;6.610;2023-05-01T09:09:04;101279.88;;;25.23;33.09
4705;BME280;2366;51.332;6.610;2023-05-01T09:11:30;101280.63;;;25.00;33.07
4705;BME280;2366;51.332;6.610;2023-05-01T09:13:56;101279.41;;;25.03;33.04
4705;BME280;2366;51.332;6.610;2023-05-01T09:16:21;101273.59;;;25.14;33.14
4705;BME280;2366;51.332;6.610;2023-05-01T09:18:47;101270.69;;;25.24;34.39
4705;BME280;2366;51.332;6.610;2023-05-01T09:21:13;101274.09;;;25.80;33.80
4705;BME280;2366;51.332;6.610;2023-05-01T09:23:39;101275.69;;;26.89;31.14
4705;BME280;2366;51.332;6.610;2023-05-01T09:26:06;101274.28;;;26.78;30.87
4705;BME280;2366;51.332;6.610;2023-05-01T09:28:58;101271.16;;;27.11;30.11
4705;BME280;2366;51.332;6.610;2023-05-01T09:31:28;101275.78;;;27.25;30.07
4705;BME280;2366;51.332;6.610;2023-05-01T09:34:01;101274.63;;;28.14;28.85
4705;BME280;2366;51.332;6.610;2023-05-01T09:36:32;101280.66;;;28.31;28.76
4705;BME280;2366;51.332;6.610;2023-05-01T09:38:59;101278.06;;;28.22;29.08
4705;BME280;2366;51.332;6.610;2023-05-01T09:41:25;101265.63;;;28.41;28.75
4705;BME280;2366;51.332;6.610;2023-05-01T09:43:55;101271.59;;;28.52;27.79
4705;BME280;2366;51.332;6.610;2023-05-01T09:46:22;101266.66;;;28.68;26.79
4705;BME280;2366;51.332;6.610;2023-05-01T09:51:25;101264.28;;;28.87;28.25
4705;BME280;2366;51.332;6.610;2023-05-01T09:53:53;101273.25;;;28.81;28.34
4705;BME280;2366;51.332;6.610;2023-05-01T09:56:19;101272.44;;;29.22;27.70
4705;BME280;2366;51.332;6.610;2023-05-01T09:58:46;101269.66;;;29.77;27.08
4705;BME280;2366;51.332;6.610;2023-05-01T10:01:12;101268.03;;;30.16;27.19
4705;BME280;2366;51.332;6.610;2023-05-01T10:03:38;101265.50;;;30.61;26.15
4705;BME280;2366;51.332;6.610;2023-05-01T10:06:03;101262.09;;;29.72;28.02
4705;BME280;2366;51.332;6.610;2023-05-01T10:08:48;101260.75;;;29.41;26.99
4705;BME280;2366;51.332;6.610;2023-05-01T10:11:14;101260.06;;;28.84;27.71
4705;BME280;2366;51.332;6.610;2023-05-01T10:13:40;101264.50;;;28.08;29.73
4705;BME280;2366;51.332;6.610;2023-05-01T10:16:06;101262.97;;;28.48;29.52
4705;BME280;2366;51.332;6.610;2023-05-01T10:18:34;101253.34;;;28.87;29.19
4705;BME280;2366;51.332;6.610;2023-05-01T10:21:00;101252.06;;;28.48;29.58
4705;BME280;2366;51.332;6.610;2023-05-01T10:23:25;101257.94;;;28.23;28.74
4705;BME280;2366;51.332;6.610;2023-05-01T10:25:55;101248.16;;;28.08;29.80
4705;BME280;2366;51.332;6.610;2023-05-01T10:28:21;101251.66;;;28.01;30.33
4705;BME280;2366;51.332;6.610;2023-05-01T10:30:48;101256.66;;;28.19;29.37
4705;BME280;2366;51.332;6.610;2023-05-01T10:33:13;101240.25;;;27.48;30.16
4705;BME280;2366;51.332;6.610;2023-05-01T10:35:41;101245.84;;;27.10;31.10
4705;BME280;2366;51.332;6.610;2023-05-01T10:38:11;101247.88;;;27.38;31.69
4705;BME280;2366;51.332;6.610;2023-05-01T10:43:25;101243.28;;;27.81;30.70
4705;BME280;2366;51.332;6.610;2023-05-01T10:53:45;101234.97;;;27.47;30.46
4705;BME280;2366;51.332;6.610;2023-05-01T11:12:56;101225.72;;;27.84;30.99
4705;BME280;2366;51.332;6.610;2023-05-01T11:20:08;101211.94;;;27.28;30.05
4705;BME280;2366;51.332;6.610;2023-05-01T11:22:34;101222.44;;;26.64;30.47
4705;BME280;2366;51.332;6.610;2023-05-01T11:25:01;101220.75;;;26.78;30.90
4705;BME280;2366;51.332;6.610;2023-05-01T11:27:29;101214.75;;;27.34;30.77
4705;BME280;2366;51.332;6.610;2023-05-01T11:29:59;101222.81;;;27.64;29.97
4705;BME280;2366;51.332;6.610;2023-05-01T11:32:26;101214.66;;;27.64;29.09
4705;BME280;2366;51.332;6.610;2023-05-01T11:34:52;101211.31;;;27.25;28.76
4705;BME280;2366;51.332;6.610;2023-05-01T11:37:18;101210.88;;;27.22;30.43
4705;BME280;2366;51.332;6.610;2023-05-01T11:39:50;101208.94;;;27.37;29.89
4705;BME280;2366;51.332;6.610;2023-05-01T11:42:19;101204.00;;;27.48;29.48
4705;BME280;2366;51.332;6.610;2023-05-01T11:45:08;101210.47;;;27.10;29.44
4705;BME280;2366;51.332;6.610;2023-05-01T11:47:37;101209.38;;;27.04;28.39
4705;BME280;2366;51.332;6.610;2023-05-01T11:50:05;101207.16;;;26.63;29.18
4705;BME280;2366;51.332;6.610;2023-05-01T11:52:41;101205.38;;;26.56;29.16
4705;BME280;2366;51.332;6.610;2023-05-01T11:55:07;101204.72;;;26.83;29.60
4705;BME280;2366;51.332;6.610;2023-05-01T11:57:52;101204.91;;;27.18;28.56
4705;BME280;2366;51.332;6.610;2023-05-01T12:00:36;101204.19;;;27.24;28.27
4705;BME280;2366;51.332;6.610;2023-05-01T12:03:10;101203.34;;;27.24;28.00
4705;BME280;2366;51.332;6.610;2023-05-01T12:05:40;101197.84;;;27.39;27.02
4705;BME280;2366;51.332;6.610;2023-05-01T12:10:38;101196.53;;;26.98;27.45
4705;BME280;2366;51.332;6.610;2023-05-01T12:13:05;101191.22;;;27.27;28.33
4705;BME280;2366;51.332;6.610;2023-05-01T12:15:33;101190.00;;;27.72;28.11
4705;BME280;2366;51.332;6.610;2023-05-01T12:17:59;101186.38;;;27.65;27.61
4705;BME280;2366;51.332;6.610;2023-05-01T12:20:39;101192.47;;;27.89;28.00
4705;BME280;2366;51.332;6.610;2023-05-01T12:23:06;101191.03;;;27.93;27.76
4705;BME280;2366;51.332;6.610;2023-05-01T12:25:32;101194.03;;;27.98;28.32
4705;BME280;2366;51.332;6.610;2023-05-01T12:28:07;101181.97;;;27.64;27.86
4705;BME280;2366;51.332;6.610;2023-05-01T12:30:34;101188.75;;;27.32;28.92
4705;BME280;2366;51.332;6.610;2023-05-01T12:33:07;101185.34;;;27.44;28.58
4705;BME280;2366;51.332;6.610;2023-05-01T12:35:33;101169.78;;;27.38;28.77
4705;BME280;2366;51.332;6.610;2023-05-01T12:37:58;101180.22;;;26.98;27.76
4705;BME280;2366;51.332;6.610;2023-05-01T12:40:25;101172.25;;;26.82;28.17
4705;BME280;2366;51.332;6.610;2023-05-01T12:42:55;101168.34;;;26.70;27.05
4705;BME280;2366;51.332;6.610;2023-05-01T12:45:24;101169.84;;;27.09;28.81
4705;BME280;2366;51.332;6.610;2023-05-01T12:47:49;101172.84;;;27.50;28.23
4705;BME280;2366;51.332;6.610;2023-05-01T12:50:15;101165.75;;;27.56;27.38
4705;BME280;2366;51.332;6.610;2023-05-01T12:52:40;101170.06;;;27.43;26.04
4705;BME280;2366;51.332;6.610;2023-05-01T12:55:06;101170.13;;;27.14;27.08
4705;BME280;2366;51.332;6.610;2023-05-01T12:57:33;101166.41;;;27.58;27.90
4705;BME280;2366;51.332;6.610;2023-05-01T13:00:00;101165.38;;;27.80;28.06
4705;BME280;2366;51.332;6.610;2023-05-01T13:02:32;101165.38;;;27.80;27.71
4705;BME280;2366;51.332;6.610;2023-05-01T13:05:05;101164.50;;;27.80;27.81
4705;BME280;2366;51.332;6.610;2023-05-01T13:07:31;101167.44;;;27.78;27.81
4705;BME280;2366;51.332;6.610;2023-05-01T13:09:58;101164.47;;;27.30;28.98
4705;BME280;2366;51.332;6.610;2023-05-01T13:12:25;101166.00;;;26.67;30.15
4705;BME280;2366;51.332;6.610;2023-05-01T13:14:51;101167.50;;;26.39;30.28
4705;BME280;2366;51.332;6.610;2023-05-01T13:17:24;101164.75;;;26.10;30.76
4705;BME280;2366;51.332;6.610;2023-05-01T13:20:01;101167.97;;;25.67;30.70
4705;BME280;2366;51.332;6.610;2023-05-01T13:22:31;101163.41;;;25.68;30.63
4705;BME280;2366;51.332;6.610;2023-05-01T13:24:57;101165.69;;;25.56;30.38
4705;BME280;2366;51.332;6.610;2023-05-01T13:27:22;101167.75;;;25.54;30.79
4705;BME280;2366;51.332;6.610;2023-05-01T13:29:56;101171.84;;;25.50;30.59
4705;BME280;2366;51.332;6.610;2023-05-01T13:32:25;101171.66;;;25.28;31.46
4705;BME280;2366;51.332;6.610;2023-05-01T13:34:51;101169.50;;;24.84;30.90
4705;BME280;2366;51.332;6.610;2023-05-01T13:37:18;101173.09;;;24.76;30.74
4705;BME280;2366;51.332;6.610;2023-05-01T13:39:45;101176.56;;;24.62;30.93
4705;BME280;2366;51.332;6.610;2023-05-01T13:42:11;101183.34;;;24.58;31.22
4705;BME280;2366;51.332;6.610;2023-05-01T13:44:47;101183.88;;;24.53;30.57
4705;BME280;2366;51.332;6.610;2023-05-01T13:47:16;101182.81;;;24.46;30.64
4705;BME280;2366;51.332;6.610;2023-05-01T13:49:42;101188.09;;;24.56;30.15
4705;BME280;2366;51.332;6.610;2023-05-01T13:52:14;101183.13;;;24.68;30.97
4705;BME280;2366;51.332;6.610;2023-05-01T13:54:41;101179.25;;;25.01;30.20
4705;BME280;2366;51.332;6.610;2023-05-01T13:57:07;101183.88;;;25.24;29.79
4705;BME280;2366;51.332;6.610;2023-05-01T13:59:37;101188.84;;;25.20;29.59
4705;BME280;2366;51.332;6.610;2023-05-01T14:02:21;101209.97;;;25.33;30.79
4705;BME280;2366;51.332;6.610;2023-05-01T14:04:48;101219.25;;;24.99;31.40